Time;durP1;ratioP1;P1;durP2;ratioP2;P2;SDS_P1;SDS_P2;PMS_P1;PMS_P2;Temp;Humidity;BMP_temperature;BMP_pressure;BME280_temperature;BME280_humidity;BME280_pressure;Samples;Min_cycle;Max_cycle;Signal;HPM_P1;HPM_P2
2023/07/19 00:02:15;;;;;;;10.48;6.65;;;21.30;76.60;;;20.51;100.00;95794.41;4960977;28;20403;-71
2023/07/19 00:04:41;;;;;;;14.70;6.60;;;21.30;76.90;;;20.46;100.00;95784.50;4955464;28;20442;-71
2023/07/19 00:07:07;;;;;;;11.60;6.55;;;21.30;77.00;;;20.42;100.00;95784.22;4939418;27;20515;-71
2023/07/19 00:09:33;;;;;;;11.48;6.85;;;21.30;77.20;;;20.41;100.00;95784.47;4943416;28;20480;-71
2023/07/19 00:11:59;;;;;;;10.32;6.47;;;21.30;77.40;;;20.41;100.00;95777.28;4960805;27;20351;-71
2023/07/19 00:14:25;;;;;;;12.95;6.85;;;21.30;77.50;;;20.42;100.00;95775.41;4939380;28;20349;-71
2023/07/19 00:16:51;;;;;;;12.88;6.55;;;21.30;77.30;;;20.44;100.00;95773.28;4982532;28;20448;-71
2023/07/19 00:19:17;;;;;;;8.60;6.13;;;21.40;77.40;;;20.44;100.00;95776.75;4973770;28;20344;-71
2023/07/19 00:21:43;;;;;;;10.75;6.80;;;21.30;77.90;;;20.44;100.00;95766.06;4937683;27;20505;-71
2023/07/19 00:24:09;;;;;;;9.80;6.25;;;21.30;77.80;;;20.41;100.00;95763.09;4960001;27;20739;-71
2023/07/19 00:26:35;;;;;;;9.75;6.60;;;21.40;77.80;;;20.38;100.00;95756.38;5004649;27;20371;-71
2023/07/19 00:29:01;;;;;;;13.07;6.35;;;21.30;77.80;;;20.38;100.00;95759.06;5010944;27;20211;-71
2023/07/19 00:31:27;;;;;;;8.35;6.38;;;21.20;77.80;;;20.37;100.00;95757.44;4971825;28;20205;-71
2023/07/19 00:33:53;;;;;;;9.43;6.50;;;21.30;77.80;;;20.36;100.00;95750.47;4954886;27;20685;-71
2023/07/19 00:36:19;;;;;;;9.65;6.40;;;21.30;78.20;;;20.38;100.00;95755.59;4952687;28;20484;-71
2023/07/19 00:38:46;;;;;;;14.38;6.65;;;21.30;78.30;;;20.38;100.00;95763.59;4982857;27;20420;-71
2023/07/19 00:41:13;;;;;;;9.00;6.30;;;21.30;78.10;;;20.39;100.00;95743.84;4957621;27;20316;-70
2023/07/19 00:43:39;;;;;;;10.68;6.38;;;21.40;78.00;;;20.38;100.00;95755.59;4951393;27;20351;-71
2023/07/19 00:46:07;;;;;;;11.02;6.88;;;21.30;78.10;;;20.37;100.00;95759.31;4962792;27;20200;-71
2023/07/19 00:48:33;;;;;;;10.20;6.20;;;21.30;78.30;;;20.36;100.00;95760.34;4952321;27;20388;-71
2023/07/19 00:50:59;;;;;;;12.15;7.57;;;21.30;78.20;;;20.32;100.00;95757.41;4954726;27;20403;-70
2023/07/19 00:53:25;;;;;;;9.88;6.93;;;21.30;78.30;;;20.34;100.00;95770.50;4966825;27;20204;-72
2023/07/19 00:55:51;;;;;;;9.98;6.40;;;21.20;78.30;;;20.33;100.00;95768.88;4950574;27;20788;-70
2023/07/19 00:58:18;;;;;;;9.90;6.38;;;21.20;78.00;;;20.33;100.00;95782.25;4962665;27;20744;-69
2023/07/19 01:00:44;;;;;;;11.15;6.90;;;21.20;78.20;;;20.30;100.00;95774.75;4987539;27;20473;-69
2023/07/19 01:03:11;;;;;;;11.98;6.63;;;21.20;78.10;;;20.29;100.00;95778.47;4986508;27;20208;-70
2023/07/19 01:05:37;;;;;;;12.40;6.85;;;21.30;78.50;;;20.27;100.00;95775.28;4975279;27;20592;-71
2023/07/19 01:08:04;;;;;;;11.55;7.63;;;21.20;78.70;;;20.28;100.00;95766.19;4987134;27;20386;-70
2023/07/19 01:10:30;;;;;;;16.08;9.00;;;21.20;78.70;;;20.26;100.00;95758.44;4968207;27;20526;-70
2023/07/19 01:13:04;;;;;;;13.68;10.52;;;21.10;78.60;;;20.23;100.00;95758.16;4983063;27;20247;-70
2023/07/19 01:15:30;;;;;;;14.35;10.57;;;21.10;78.60;;;20.19;100.00;95764.00;4960022;27;20348;-70
2023/07/19 01:17:56;;;;;;;11.93;10.35;;;21.10;79.00;;;20.18;100.00;95767.75;4988049;28;20213;-70
2023/07/19 01:20:22;;;;;;;14.38;11.02;;;21.10;78.80;;;20.18;100.00;95769.63;4944829;27;20409;-70
2023/07/19 01:22:48;;;;;;;14.68;10.02;;;21.10;78.70;;;20.16;100.00;95766.41;4981298;27;20326;-70
2023/07/19 01:25:14;;;;;;;18.20;8.80;;;21.10;78.60;;;20.13;100.00;95762.34;4971424;27;20340;-70
2023/07/19 01:27:40;;;;;;;15.07;9.05;;;21.10;78.50;;;20.12;100.00;95768.75;4963472;27;20554;-70
2023/07/19 01:30:07;;;;;;;13.52;8.55;;;21.10;78.50;;;20.10;100.00;95762.88;4958144;28;20340;-70
2023/07/19 01:32:33;;;;;;;13.27;8.20;;;20.90;78.70;;;20.08;100.00;95766.88;4975981;28;20348;-71
2023/07/19 01:34:59;;;;;;;11.13;7.93;;;20.90;78.40;;;20.05;100.00;95768.19;4938305;28;20205;-70
2023/07/19 01:37:28;;;;;;;12.30;7.57;;;20.90;78.40;;;20.02;100.00;95762.56;4952460;28;20348;-70
2023/07/19 01:39:54;;;;;;;9.10;7.03;;;20.80;78.30;;;19.98;100.00;95756.94;4950902;27;20387;-70
2023/07/19 01:42:20;;;;;;;9.80;6.97;;;20.80;78.00;;;19.96;100.00;95761.72;4970634;27;20328;-70
2023/07/19 01:44:46;;;;;;;13.48;7.22;;;20.80;77.60;;;19.96;100.00;95761.72;4946797;28;20371;-70
2023/07/19 01:47:15;;;;;;;10.02;6.90;;;20.80;77.70;;;19.98;100.00;95767.59;4968359;28;20360;-71
2023/07/19 01:49:41;;;;;;;17.33;6.63;;;20.90;77.60;;;19.97;100.00;95763.34;4947520;27;20404;-70
2023/07/19 01:52:07;;;;;;;10.70;6.47;;;20.90;77.60;;;20.00;100.00;95749.47;4948974;27;20371;-71
2023/07/19 01:54:33;;;;;;;9.93;6.93;;;21.00;77.60;;;20.02;100.00;95749.22;4946027;28;20351;-71
2023/07/19 01:56:59;;;;;;;12.70;7.07;;;21.00;77.70;;;20.06;100.00;95753.78;4953989;28;20572;-70
2023/07/19 01:59:25;;;;;;;11.80;7.20;;;21.10;77.60;;;20.08;100.00;95748.16;4955638;28;20348;-70
2023/07/19 02:01:53;;;;;;;10.55;7.00;;;21.10;77.60;;;20.11;100.00;95750.31;4956569;28;20316;-70
2023/07/19 02:04:19;;;;;;;12.10;7.00;;;21.10;77.50;;;20.13;100.00;95740.19;4941600;27;20325;-73
2023/07/19 02:06:46;;;;;;;10.73;6.70;;;21.10;77.10;;;20.15;100.00;95751.44;4964796;28;20346;-70
2023/07/19 02:09:12;;;;;;;11.85;6.22;;;21.10;76.90;;;20.16;100.00;95756.53;4939424;28;20196;-71
2023/07/19 02:11:38;;;;;;;13.32;6.82;;;21.10;77.40;;;20.16;100.00;95769.06;4971735;28;20317;-71
2023/07/19 02:14:04;;;;;;;11.85;6.65;;;21.10;77.30;;;20.18;100.00;95767.75;4956904;28;20389;-70
2023/07/19 02:16:30;;;;;;;9.77;6.30;;;21.20;77.40;;;20.18;100.00;95772.28;4962283;28;20316;-70
2023/07/19 02:18:56;;;;;;;11.10;6.68;;;21.20;77.40;;;20.18;100.00;95773.09;4934479;28;20333;-70
2023/07/19 02:21:22;;;;;;;10.13;6.68;;;21.10;77.40;;;20.17;100.00;95781.38;4948948;28;20362;-71
2023/07/19 02:23:48;;;;;;;11.00;6.72;;;21.10;77.30;;;20.15;100.00;95762.94;4964347;27;20284;-70
2023/07/19 02:26:14;;;;;;;11.10;6.63;;;21.10;77.20;;;20.14;100.00;95758.66;4967258;28;20332;-70
2023/07/19 02:28:40;;;;;;;10.38;7.07;;;21.10;76.90;;;20.12;100.00;95774.09;4970939;28;20284;-70
2023/07/19 02:31:06;;;;;;;8.18;6.85;;;21.10;77.00;;;20.13;100.00;95765.03;4959360;28;20341;-71
2023/07/19 02:33:33;;;;;;;11.43;5.85;;;21.10;76.90;;;20.11;100.00;95751.13;4971082;28;20375;-71
2023/07/19 02:35:59;;;;;;;8.48;5.95;;;21.10;76.80;;;20.10;100.00;95738.84;4982214;28;20341;-70
2023/07/19 02:38:25;;;;;;;10.77;6.28;;;20.90;76.80;;;20.08;100.00;95748.16;4960787;28;20517;-70
2023/07/19 02:40:59;;;;;;;18.30;6.63;;;21.00;76.70;;;20.05;100.00;95752.16;4974111;28;20410;-70
2023/07/19 02:43:26;;;;;;;10.73;6.10;;;21.00;77.20;;;20.06;100.00;95753.78;4948045;27;20415;-67
2023/07/19 02:45:55;;;;;;;11.35;6.07;;;21.00;77.30;;;20.08;100.00;95775.69;4979623;28;20607;-75
2023/07/19 02:48:21;;;;;;;10.52;5.93;;;21.00;77.30;;;20.06;100.00;95769.78;4959674;27;20714;-72
2023/07/19 02:50:48;;;;;;;10.48;6.50;;;21.00;77.40;;;20.08;100.00;95773.00;4964229;28;20494;-70
2023/07/19 02:53:14;;;;;;;12.05;5.97;;;21.10;77.30;;;20.09;100.00;95773.81;4936762;28;20368;-71
2023/07/19 02:55:46;;;;;;;11.20;6.55;;;21.10;77.30;;;20.10;100.00;95789.56;4968042;27;20556;-70
2023/07/19 02:58:13;;;;;;;10.40;5.93;;;21.10;77.30;;;20.10;100.00;95776.22;4969403;27;20289;-70
2023/07/19 03:00:41;;;;;;;10.57;6.38;;;21.10;77.40;;;20.10;100.00;95767.41;4975158;27;20292;-71
2023/07/19 03:03:10;;;;;;;12.27;6.35;;;21.10;77.60;;;20.10;100.00;95781.56;4982177;28;20348;-71
2023/07/19 03:05:40;;;;;;;12.27;6.30;;;21.10;77.70;;;20.05;100.00;95773.53;4969631;27;20254;-71
2023/07/19 03:08:07;;;;;;;11.25;6.40;;;21.00;77.40;;;20.05;100.00;95762.84;4979148;27;20390;-71
2023/07/19 03:10:33;;;;;;;9.32;5.85;;;21.00;77.60;;;20.03;100.00;95770.31;4992594;27;20660;-71
2023/07/19 03:12:59;;;;;;;11.60;6.25;;;21.00;77.60;;;19.99;100.00;95776.41;4953262;27;20342;-71
2023/07/19 03:15:25;;;;;;;10.05;6.00;;;21.00;77.60;;;19.98;100.00;95756.13;4947191;28;20364;-71
2023/07/19 03:17:51;;;;;;;8.93;6.13;;;21.00;77.70;;;19.97;100.00;95749.97;4951746;27;20336;-70
2023/07/19 03:20:17;;;;;;;11.98;5.88;;;21.00;77.80;;;19.96;100.00;95753.72;4975499;27;20357;-71
2023/07/19 03:22:43;;;;;;;12.13;6.00;;;20.90;77.40;;;19.94;100.00;95750.50;4952193;27;20407;-70
2023/07/19 03:25:10;;;;;;;12.80;6.25;;;20.90;77.70;;;19.91;100.00;95734.16;4969535;27;20308;-71
2023/07/19 03:27:36;;;;;;;11.15;6.22;;;20.90;77.50;;;19.88;100.00;95740.81;4962061;27;20361;-71
2023/07/19 03:30:02;;;;;;;11.80;5.30;;;20.80;77.20;;;19.85;100.00;95739.47;4961435;27;20343;-70
2023/07/19 03:32:29;;;;;;;9.55;5.35;;;20.80;77.50;;;19.83;100.00;95738.94;4964521;27;20331;-71
2023/07/19 03:34:55;;;;;;;10.52;5.55;;;20.80;77.10;;;19.83;100.00;95738.94;4967453;27;20442;-71
2023/07/19 03:37:22;;;;;;;8.88;5.43;;;20.80;77.30;;;19.84;100.00;95742.41;4955396;27;20323;-71
2023/07/19 03:39:48;;;;;;;8.77;5.82;;;20.80;77.40;;;19.82;100.00;95747.19;4952716;27;20359;-71
2023/07/19 03:42:14;;;;;;;11.43;5.80;;;20.80;77.50;;;19.80;100.00;95736.78;4970341;27;20482;-70
2023/07/19 03:44:40;;;;;;;12.55;6.07;;;20.80;77.50;;;19.79;100.00;95737.84;4957011;27;20321;-70
2023/07/19 03:47:06;;;;;;;10.27;5.57;;;20.70;77.40;;;19.78;100.00;95740.75;4949812;27;20796;-68
2023/07/19 03:49:32;;;;;;;12.85;5.60;;;20.70;77.30;;;19.78;100.00;95740.75;4975834;27;20553;-67
2023/07/19 03:51:58;;;;;;;10.20;5.50;;;20.70;77.50;;;19.73;100.00;95748.72;4991251;27;20047;-70
2023/07/19 03:54:23;;;;;;;14.68;6.03;;;20.60;77.70;;;19.72;100.00;95736.44;5090420;27;20208;-71
2023/07/19 03:56:49;;;;;;;14.85;6.07;;;20.70;77.90;;;19.69;100.00;95742.28;5107200;27;20138;-71
2023/07/19 03:59:15;;;;;;;11.38;5.43;;;20.60;77.80;;;19.63;100.00;95736.09;5098499;27;20058;-72
2023/07/19 04:01:41;;;;;;;8.65;5.10;;;20.60;78.00;;;19.62;100.00;95728.34;5095883;27;20027;-65
2023/07/19 04:04:07;;;;;;;10.07;5.00;;;20.60;78.20;;;19.57;100.00;95718.44;5127275;27;20058;-65
2023/07/19 04:06:32;;;;;;;11.77;5.63;;;20.50;78.30;;;19.52;100.00;95721.84;5103511;27;20066;-64
2023/07/19 04:08:58;;;;;;;9.85;5.43;;;20.50;78.30;;;19.52;100.00;95732.53;5096973;27;20142;-72
2023/07/19 04:11:24;;;;;;;10.05;5.10;;;20.50;78.40;;;19.50;100.00;95723.97;5087245;27;20050;-72
2023/07/19 04:13:50;;;;;;;12.38;5.68;;;20.50;78.40;;;19.47;100.00;95724.47;5094826;27;20059;-71
2023/07/19 04:16:16;;;;;;;12.25;5.63;;;20.40;78.50;;;19.48;100.00;95725.28;5108162;27;20039;-71
2023/07/19 04:18:42;;;;;;;11.27;5.50;;;20.50;78.50;;;19.51;100.00;95717.56;5105304;27;20050;-70
2023/07/19 04:21:08;;;;;;;13.45;5.13;;;20.50;78.40;;;19.52;100.00;95708.50;5116104;27;20088;-71
2023/07/19 04:23:33;;;;;;;12.50;5.57;;;20.60;78.20;;;19.52;100.00;95718.38;5106439;27;20158;-66
2023/07/19 04:25:59;;;;;;;12.95;5.68;;;20.50;78.40;;;19.51;100.00;95709.56;5112250;27;20068;-66
2023/07/19 04:28:25;;;;;;;13.55;5.15;;;20.60;78.30;;;19.54;100.00;95711.75;5107245;27;20044;-67
2023/07/19 04:30:54;;;;;;;9.93;5.15;;;20.60;78.20;;;19.56;100.00;95716.84;5113017;27;20089;-66
2023/07/19 04:33:19;;;;;;;11.07;5.50;;;20.60;77.90;;;19.58;100.00;95722.72;5095347;27;20520;-67
2023/07/19 04:35:47;;;;;;;9.32;5.28;;;20.70;77.90;;;19.57;100.00;95729.91;5098838;27;20121;-68
2023/07/19 04:38:13;;;;;;;9.20;4.93;;;20.60;77.80;;;19.59;100.00;95732.34;5082419;27;20030;-67
2023/07/19 04:40:39;;;;;;;16.63;5.63;;;20.70;77.80;;;19.62;100.00;95731.00;5097360;27;20064;-67
2023/07/19 04:43:05;;;;;;;14.57;5.53;;;20.70;77.80;;;19.65;100.00;95738.50;5116501;27;20069;-67
2023/07/19 04:45:30;;;;;;;8.50;5.43;;;20.70;77.80;;;19.65;100.00;95735.84;5091338;27;20130;-67
2023/07/19 04:47:57;;;;;;;14.73;5.45;;;20.70;78.00;;;19.68;100.00;95738.00;5093793;27;20157;-67
2023/07/19 04:50:24;;;;;;;12.88;5.70;;;20.80;77.90;;;19.72;100.00;95736.44;5087248;27;20031;-67
2023/07/19 04:52:53;;;;;;;11.30;5.63;;;20.90;77.80;;;19.75;100.00;95735.94;5098118;27;20092;-67
2023/07/19 04:55:20;;;;;;;13.30;6.15;;;21.00;77.60;;;19.79;100.00;95737.03;5108264;27;20486;-67
2023/07/19 04:57:46;;;;;;;9.43;4.72;;;21.00;77.50;;;19.84;100.00;95734.38;5094668;27;20051;-67
2023/07/19 05:00:13;;;;;;;13.43;5.15;;;21.10;77.30;;;19.91;100.00;95728.81;5094946;27;20024;-67
2023/07/19 05:02:39;;;;;;;10.85;5.50;;;21.20;76.80;;;19.97;100.00;95743.84;5095840;27;20047;-66
2023/07/19 05:05:08;;;;;;;10.45;5.20;;;21.20;76.60;;;20.02;100.00;95746.53;5132878;27;20077;-66
2023/07/19 05:07:37;;;;;;;10.52;4.88;;;21.30;76.20;;;20.08;100.00;95745.50;5099072;27;20125;-67
2023/07/19 05:10:03;;;;;;;10.07;5.22;;;21.40;76.10;;;20.15;100.00;95751.44;5098631;27;20026;-66
2023/07/19 05:12:30;;;;;;;11.43;5.60;;;21.50;75.90;;;20.24;100.00;95754.44;5082323;27;20035;-67
2023/07/19 05:14:58;;;;;;;10.07;5.07;;;21.50;75.70;;;20.28;100.00;95758.19;5095608;27;20578;-67
2023/07/19 05:17:24;;;;;;;11.80;5.20;;;21.60;75.70;;;20.34;100.00;95762.47;5094982;27;20031;-67
2023/07/19 05:19:50;;;;;;;10.00;4.90;;;21.60;75.40;;;20.40;100.00;95769.50;5097788;27;20055;-67
2023/07/19 05:22:16;;;;;;;9.65;4.80;;;21.70;75.50;;;20.44;100.00;95762.59;5109547;27;20039;-67
2023/07/19 05:24:44;;;;;;;12.10;5.30;;;21.70;75.20;;;20.49;100.00;95754.59;5072957;27;20027;-66
2023/07/19 05:27:15;;;;;;;11.07;4.80;;;21.80;75.10;;;20.58;100.00;95770.94;5080525;27;20027;-67
2023/07/19 05:29:41;;;;;;;13.55;5.35;;;21.90;75.10;;;20.66;100.00;95778.47;5075458;27;20050;-67
2023/07/19 05:32:07;;;;;;;10.55;5.28;;;22.00;74.80;;;20.69;100.00;95775.28;5092756;28;20437;-67
2023/07/19 05:34:33;;;;;;;11.65;4.70;;;22.00;74.90;;;20.71;100.00;95763.25;5068795;27;20475;-67
2023/07/19 05:36:59;;;;;;;8.80;5.28;;;22.00;75.00;;;20.74;100.00;95764.59;5079027;27;20059;-67
2023/07/19 05:39:25;;;;;;;12.32;4.88;;;22.00;75.10;;;20.74;100.00;95769.94;5113523;27;20116;-68
2023/07/19 05:41:51;;;;;;;8.35;4.38;;;22.00;74.50;;;20.76;100.00;95763.25;5082328;27;20035;-71
2023/07/19 05:44:17;;;;;;;12.93;6.00;;;22.00;74.50;;;20.79;100.00;95776.09;5107374;27;20066;-68
2023/07/19 05:46:43;;;;;;;11.93;4.97;;;22.10;74.40;;;20.79;100.00;95768.09;5106639;27;20130;-68
2023/07/19 05:49:10;;;;;;;12.10;5.40;;;22.10;74.50;;;20.85;100.00;95770.81;5074023;27;20434;-68
2023/07/19 05:51:36;;;;;;;10.55;5.70;;;22.20;74.30;;;20.93;100.00;95781.78;5091813;27;20042;-68
2023/07/19 05:54:03;;;;;;;9.80;4.88;;;22.40;74.00;;;21.01;100.00;95772.44;5124654;27;20023;-68
2023/07/19 05:56:29;;;;;;;9.13;4.63;;;22.50;73.80;;;21.09;100.00;95755.91;5096931;27;20097;-68
2023/07/19 05:58:55;;;;;;;14.73;4.95;;;22.60;73.60;;;21.16;100.00;95759.13;5111803;28;20334;-66
2023/07/19 06:01:20;;;;;;;12.98;5.43;;;22.60;73.20;;;21.24;100.00;95750.59;5104922;27;20080;-66
2023/07/19 06:03:49;;;;;;;13.43;5.30;;;22.80;73.30;;;21.35;100.00;95760.28;5113011;27;20092;-66
2023/07/19 06:06:15;;;;;;;11.70;5.13;;;23.00;72.50;;;21.45;100.00;95769.38;5105973;27;20034;-66
2023/07/19 06:08:40;;;;;;;11.18;5.35;;;23.10;72.40;;;21.59;100.00;95762.44;5116036;28;20059;-66
2023/07/19 06:11:07;;;;;;;9.38;5.55;;;23.30;72.00;;;21.75;100.00;95760.59;5096422;28;20023;-66
2023/07/19 06:13:32;;;;;;;10.85;5.47;;;23.50;71.70;;;21.89;100.00;95767.00;5078551;27;20019;-66
2023/07/19 06:15:58;;;;;;;9.45;4.78;;;23.60;71.20;;;22.06;100.00;95780.16;5085902;28;20082;-66
2023/07/19 06:18:24;;;;;;;10.30;4.60;;;23.80;70.20;;;22.21;100.00;95786.31;5091834;28;20059;-66
2023/07/19 06:20:50;;;;;;;10.63;5.15;;;24.10;69.90;;;22.39;100.00;95789.47;5074550;28;20116;-66
2023/07/19 06:23:16;;;;;;;12.50;5.05;;;24.40;69.50;;;22.56;100.00;95796.16;5080698;27;20035;-66
2023/07/19 06:25:42;;;;;;;12.15;5.10;;;24.50;68.40;;;22.75;100.00;95788.31;5086206;27;20035;-66
2023/07/19 06:28:08;;;;;;;8.63;4.60;;;24.80;67.80;;;22.98;100.00;95786.94;5088153;28;20370;-66
2023/07/19 06:30:33;;;;;;;10.98;4.65;;;25.10;66.20;;;23.21;100.00;95796.22;5069145;27;20886;-66
2023/07/19 06:32:59;;;;;;;8.35;5.00;;;25.50;64.70;;;23.45;97.77;95785.63;5070509;27;20034;-66
2023/07/19 06:35:25;;;;;;;12.05;5.25;;;25.60;64.10;;;23.65;95.69;95785.53;5066172;27;20035;-66
2023/07/19 06:37:51;;;;;;;14.10;5.35;;;26.00;62.90;;;23.83;93.26;95781.38;5088227;27;20494;-66
2023/07/19 06:40:17;;;;;;;9.27;4.78;;;26.00;61.40;;;24.01;91.40;95779.88;5067695;27;20161;-66
2023/07/19 06:42:43;;;;;;;7.72;4.32;;;26.40;61.10;;;24.22;91.48;95778.63;5062841;27;20035;-67
2023/07/19 06:45:09;;;;;;;12.38;4.75;;;26.50;61.00;;;24.36;88.63;95779.59;5084749;27;20134;-66
2023/07/19 06:47:35;;;;;;;8.43;5.05;;;26.40;60.00;;;24.49;86.98;95782.69;5069452;27;20051;-67
2023/07/19 06:50:01;;;;;;;11.70;4.78;;;26.60;59.50;;;24.60;86.09;95778.81;5083803;27;20027;-66
2023/07/19 06:52:27;;;;;;;12.05;4.80;;;26.70;59.10;;;24.73;85.67;95784.31;5068782;27;20520;-66
2023/07/19 06:54:52;;;;;;;9.48;4.65;;;26.80;59.00;;;24.82;84.59;95792.53;5078511;27;20031;-66
2023/07/19 06:57:22;;;;;;;8.48;4.60;;;26.80;59.30;;;24.89;82.72;95790.31;5070840;27;20057;-67
2023/07/19 06:59:51;;;;;;;13.13;5.03;;;26.90;59.20;;;24.94;83.29;95790.25;5082701;27;20110;-67
2023/07/19 07:02:20;;;;;;;10.73;4.95;;;26.90;58.90;;;25.01;82.22;95798.81;5083893;27;20130;-67
2023/07/19 07:04:46;;;;;;;12.00;5.90;;;27.10;58.10;;;25.06;81.20;95805.22;5062245;27;20028;-67
2023/07/19 07:07:14;;;;;;;14.98;5.70;;;27.00;57.80;;;25.16;80.86;95808.59;5103188;27;20034;-67
2023/07/19 07:09:43;;;;;;;12.30;6.05;;;27.10;57.80;;;25.17;79.60;95799.44;5078541;27;20031;-67
2023/07/19 07:12:10;;;;;;;11.85;6.13;;;26.80;58.10;;;25.17;79.63;95806.72;5087462;28;20181;-66
2023/07/19 07:14:37;;;;;;;10.88;5.10;;;27.00;58.20;;;25.25;80.05;95812.25;5071660;27;20145;-67
2023/07/19 07:17:03;;;;;;;10.10;5.55;;;27.60;57.50;;;25.38;80.28;95829.59;5071517;27;20514;-66
2023/07/19 07:19:29;;;;;;;11.63;5.75;;;27.80;56.70;;;25.54;80.00;95830.97;5063318;27;20082;-67
2023/07/19 07:21:55;;;;;;;19.35;6.43;;;28.10;55.80;;;25.75;79.24;95822.63;5077168;27;20494;-67
2023/07/19 07:24:20;;;;;;;10.55;4.90;;;28.50;54.60;;;25.94;78.41;95813.44;5079233;27;20039;-66
2023/07/19 07:26:46;;;;;;;9.63;5.38;;;28.80;54.10;;;26.16;77.25;95820.13;5087445;27;20033;-67
2023/07/19 07:29:12;;;;;;;11.98;5.80;;;28.90;53.90;;;26.33;75.96;95819.56;5080599;27;20482;-67
2023/07/19 07:31:38;;;;;;;11.27;6.40;;;28.80;52.70;;;26.47;74.61;95821.22;5071079;27;20114;-67
2023/07/19 07:34:03;;;;;;;10.13;5.93;;;29.10;52.30;;;26.64;73.95;95831.47;5064901;27;20122;-68
2023/07/19 07:36:29;;;;;;;12.25;5.82;;;29.30;52.00;;;26.79;71.15;95833.88;5098181;27;20061;-67
2023/07/19 07:38:55;;;;;;;8.80;4.65;;;29.30;49.90;;;26.98;69.83;95819.50;5078721;27;20126;-67
2023/07/19 07:41:21;;;;;;;9.18;4.45;;;29.70;48.40;;;27.15;69.08;95814.31;5062536;27;20035;-67
2023/07/19 07:43:47;;;;;;;7.95;4.32;;;29.80;49.10;;;27.38;68.08;95807.88;5059545;27;20039;-67
2023/07/19 07:46:12;;;;;;;9.00;4.35;;;30.20;47.60;;;27.62;66.57;95796.88;5080533;27;20031;-67
2023/07/19 07:48:38;;;;;;;8.10;4.72;;;30.50;46.40;;;27.90;65.74;95800.28;5064515;27;20468;-69
2023/07/19 07:51:04;;;;;;;7.32;4.30;;;30.90;46.30;;;28.20;64.63;95793.34;5083241;27;20042;-67
2023/07/19 07:53:30;;;;;;;8.35;4.35;;;31.10;45.50;;;28.47;62.86;95778.88;5069487;27;20039;-66
2023/07/19 07:55:57;;;;;;;5.85;4.10;;;31.40;44.20;;;28.76;62.14;95777.59;5074128;27;20055;-67
2023/07/19 07:58:23;;;;;;;7.80;4.35;;;31.80;43.30;;;29.01;60.71;95776.13;5084739;27;20505;-67
2023/07/19 08:00:49;;;;;;;7.15;4.05;;;31.70;43.20;;;29.22;59.35;95764.38;5085143;27;20385;-67
2023/07/19 08:03:14;;;;;;;8.10;4.05;;;31.90;42.50;;;29.42;57.85;95754.84;5094996;28;20474;-66
2023/07/19 08:05:40;;;;;;;7.45;4.30;;;31.90;42.20;;;29.61;56.14;95761.88;5069162;27;20049;-67
2023/07/19 08:08:07;;;;;;;9.32;3.80;;;32.00;40.90;;;29.82;56.00;95763.63;5072659;28;20051;-67
2023/07/19 08:10:35;;;;;;;7.82;3.60;;;32.50;41.20;;;30.08;54.82;95758.22;5067385;27;20053;-67
2023/07/19 08:13:01;;;;;;;8.43;4.38;;;32.90;40.00;;;30.24;53.42;95747.66;5077346;27;20053;-67
2023/07/19 08:15:27;;;;;;;8.70;4.15;;;32.80;39.40;;;30.38;52.67;95740.13;5098335;27;20091;-68
2023/07/19 08:17:53;;;;;;;7.55;4.07;;;33.10;39.60;;;30.57;51.91;95749.81;5095109;27;20027;-68
2023/07/19 08:20:19;;;;;;;6.43;3.83;;;33.50;38.20;;;30.71;50.70;95739.56;5073891;27;20111;-67
2023/07/19 08:22:44;;;;;;;6.15;3.47;;;33.30;37.50;;;30.80;50.10;95734.09;5102975;27;20100;-68
2023/07/19 08:25:10;;;;;;;6.45;3.70;;;33.40;37.20;;;30.93;49.28;95725.69;5069025;27;20035;-67
2023/07/19 08:27:36;;;;;;;7.15;3.70;;;33.60;36.50;;;31.12;47.47;95716.34;5069029;27;20030;-67
2023/07/19 08:30:05;;;;;;;6.57;3.45;;;33.70;35.90;;;31.27;47.19;95707.63;5101435;27;20115;-67
2023/07/19 08:32:33;;;;;;;5.95;3.58;;;33.70;35.80;;;31.33;46.64;95695.44;5085052;27;20417;-68
2023/07/19 08:35:00;;;;;;;7.88;3.53;;;33.50;36.50;;;31.22;45.33;95688.78;5093052;27;20091;-67
2023/07/19 08:37:25;;;;;;;6.05;3.70;;;32.80;36.30;;;31.09;44.99;95685.97;5067098;27;20031;-70
2023/07/19 08:39:51;;;;;;;5.85;3.70;;;32.60;35.90;;;30.89;44.83;95672.38;5075863;27;20554;-67
2023/07/19 08:42:17;;;;;;;8.00;3.22;;;32.40;36.00;;;30.87;43.58;95674.63;5077374;27;20042;-67
2023/07/19 08:44:43;;;;;;;5.88;3.00;;;32.80;35.20;;;30.77;42.75;95667.63;5098208;27;20032;-67
2023/07/19 08:47:11;;;;;;;5.78;3.40;;;32.20;35.30;;;30.59;41.79;95636.28;5071224;28;20050;-67
2023/07/19 08:49:37;;;;;;;5.65;3.03;;;32.00;35.50;;;30.66;42.27;95661.00;5066707;27;20027;-68
2023/07/19 08:52:04;;;;;;;5.20;2.97;;;33.00;34.40;;;30.92;42.55;95664.34;5093314;27;20043;-67
2023/07/19 08:54:30;;;;;;;6.55;2.95;;;33.70;34.40;;;31.24;41.69;95660.19;5069271;27;20036;-68
2023/07/19 08:56:56;;;;;;;6.45;2.95;;;33.90;33.70;;;31.36;41.18;95656.72;5072100;27;20037;-68
2023/07/19 08:59:22;;;;;;;7.70;3.05;;;33.50;32.90;;;31.40;40.20;95654.91;5061616;27;20027;-68
2023/07/19 09:01:47;;;;;;;5.18;2.97;;;33.40;32.10;;;31.37;39.86;95639.28;5057803;27;20039;-68
2023/07/19 09:04:13;;;;;;;4.95;2.70;;;33.50;32.40;;;31.51;38.66;95637.09;5063693;27;20426;-67
2023/07/19 09:06:40;;;;;;;5.65;3.08;;;33.60;31.90;;;31.65;38.70;95626.69;5087679;27;20111;-68
2023/07/19 09:09:10;;;;;;;4.95;2.95;;;33.90;31.70;;;31.84;37.30;95628.16;5087034;27;20415;-68
2023/07/19 09:11:36;;;;;;;5.78;2.47;;;34.30;31.70;;;31.94;38.51;95639.41;5097870;27;20058;-68
2023/07/19 09:14:01;;;;;;;5.60;3.05;;;34.40;32.10;;;32.06;38.10;95637.84;5101016;27;20031;-68
2023/07/19 09:16:29;;;;;;;5.68;2.58;;;34.60;31.40;;;32.22;37.66;95636.84;5060897;27;20031;-68
2023/07/19 09:18:59;;;;;;;4.43;2.50;;;34.70;31.50;;;32.31;38.06;95627.78;5084163;27;20049;-68
2023/07/19 09:21:42;;;;;;;4.60;2.80;;;34.80;31.20;;;32.44;35.31;95610.34;5081229;27;20023;-68
2023/07/19 09:24:09;;;;;;;5.05;2.75;;;34.70;31.10;;;32.44;37.61;95635.63;5093453;27;20522;-68
2023/07/19 09:26:52;;;;;;;6.40;2.67;;;34.60;31.40;;;32.39;36.23;95611.38;5081549;27;20074;-68
2023/07/19 09:29:19;;;;;;;5.05;2.58;;;34.60;31.30;;;32.45;37.22;95631.00;5075596;27;20122;-68
2023/07/19 09:31:56;;;;;;;5.15;2.67;;;34.40;31.40;;;32.28;34.63;95599.34;5057493;27;20023;-67
2023/07/19 09:34:42;;;;;;;4.93;2.47;;;33.80;31.80;;;32.18;35.81;95611.44;5086067;27;20085;-67
2023/07/19 09:37:10;;;;;;;5.22;2.30;;;34.10;31.50;;;32.13;36.78;95641.56;5081622;27;20031;-68
2023/07/19 09:39:36;;;;;;;6.22;2.95;;;34.00;32.00;;;32.22;37.27;95628.69;5099862;27;20179;-68
2023/07/19 09:42:03;;;;;;;6.72;2.72;;;34.50;31.80;;;32.38;36.88;95636.22;5092490;27;20035;-68
2023/07/19 09:44:28;;;;;;;6.13;2.97;;;34.90;32.00;;;32.65;37.01;95635.53;5080689;27;20065;-68
2023/07/19 09:46:54;;;;;;;6.03;3.10;;;35.30;30.90;;;32.78;35.92;95636.28;5102454;27;20495;-68
2023/07/19 09:49:20;;;;;;;4.88;2.65;;;35.00;30.90;;;32.98;36.11;95626.41;5083912;27;20033;-68
2023/07/19 09:51:47;;;;;;;4.78;2.63;;;35.70;30.00;;;33.28;35.27;95630.44;5092832;27;20113;-68
2023/07/19 09:54:14;;;;;;;4.82;2.30;;;36.20;28.90;;;33.47;34.46;95630.59;5065996;28;20023;-68
2023/07/19 09:56:46;;;;;;;5.93;2.88;;;36.10;28.40;;;33.60;33.12;95614.19;5079304;27;20511;-68
2023/07/19 09:59:14;;;;;;;5.95;2.67;;;36.00;28.80;;;33.76;33.92;95615.03;5059997;28;20038;-68
2023/07/19 10:01:40;;;;;;;4.53;2.67;;;36.50;27.90;;;33.83;33.47;95609.75;5087564;27;20123;-68
2023/07/19 10:04:25;;;;;;;4.05;2.55;;;36.20;28.00;;;33.97;32.17;95591.06;5083368;28;20036;-68
2023/07/19 10:07:11;;;;;;;5.95;3.08;;;36.90;28.10;;;34.18;32.27;95593.53;5093435;28;20034;-68
2023/07/19 10:09:41;;;;;;;5.38;2.85;;;36.70;28.20;;;34.35;32.81;95589.66;5094686;28;20142;-68